Time;durP1;ratioP1;P1;durP2;ratioP2;P2;SDS_P1;SDS_P2;PMS_P1;PMS_P2;Temp;Humidity;BMP_temperature;BMP_pressure;BME280_temperature;BME280_humidity;BME280_pressure;Samples;Min_cycle;Max_cycle;Signal;HPM_P1;HPM_P2
2022/12/08 00:01:08;;;;;;;69.75;52.38;;;12.70;65.90;;;;;;5030834;27;86354;-58
2022/12/08 00:03:34;;;;;;;69.15;52.08;;;12.70;65.60;;;;;;5018574;27;88088;-59
2022/12/08 00:11:32;;;;;;;70.03;52.03;;;12.70;65.50;;;;;;5024994;27;88166;-58
2022/12/08 00:13:57;;;;;;;68.40;52.08;;;12.70;65.50;;;;;;5026459;27;85862;-58
2022/12/08 00:16:23;;;;;;;69.20;51.97;;;12.70;65.60;;;;;;5023831;27;86489;-59
2022/12/08 00:18:48;;;;;;;67.22;51.63;;;12.70;65.40;;;;;;5030900;27;86611;-59
2022/12/08 00:21:14;;;;;;;70.57;52.13;;;12.70;65.20;;;;;;5010388;27;94471;-59
2022/12/08 00:23:40;;;;;;;68.35;52.60;;;12.60;65.50;;;;;;5029211;27;90012;-58
2022/12/08 00:26:06;;;;;;;69.13;52.05;;;12.60;65.30;;;;;;5022975;27;86482;-59
2022/12/08 00:28:33;;;;;;;67.70;51.67;;;12.60;65.40;;;;;;5023914;27;87864;-59
2022/12/08 00:30:59;;;;;;;68.82;52.40;;;12.60;65.40;;;;;;5009988;27;89188;-58
2022/12/08 00:33:27;;;;;;;69.35;52.28;;;12.60;65.40;;;;;;5012922;27;86935;-59
2022/12/08 00:35:52;;;;;;;68.30;52.08;;;12.60;65.40;;;;;;5021424;27;85700;-60
2022/12/08 00:38:18;;;;;;;68.07;51.72;;;12.60;65.20;;;;;;5015828;27;85963;-59
2022/12/08 00:40:45;;;;;;;70.18;52.50;;;12.60;65.30;;;;;;5023027;27;88426;-58
2022/12/08 00:43:10;;;;;;;69.10;52.22;;;12.60;65.30;;;;;;5014002;27;86421;-58
2022/12/08 00:45:36;;;;;;;69.75;52.05;;;12.60;65.30;;;;;;5022142;27;88761;-59
2022/12/08 00:48:02;;;;;;;68.07;52.47;;;12.60;65.30;;;;;;5011891;27;87100;-58
2022/12/08 00:50:27;;;;;;;67.47;51.80;;;12.60;65.40;;;;;;5026347;27;86807;-59
2022/12/08 00:52:53;;;;;;;69.22;51.95;;;12.50;65.20;;;;;;5024374;27;85878;-59
2022/12/08 00:55:18;;;;;;;68.25;51.60;;;12.50;65.30;;;;;;5025406;27;85624;-57
2022/12/08 00:57:44;;;;;;;69.03;51.38;;;12.50;65.30;;;;;;5030995;27;87248;-59
2022/12/08 01:00:10;;;;;;;69.60;52.00;;;12.50;65.20;;;;;;5007801;27;87839;-59
2022/12/08 01:02:36;;;;;;;68.43;51.92;;;12.50;65.20;;;;;;5017602;27;86169;-58
2022/12/08 01:05:01;;;;;;;68.15;52.42;;;12.50;65.40;;;;;;5024623;27;85538;-58
2022/12/08 01:07:27;;;;;;;70.93;52.92;;;12.50;65.10;;;;;;4980181;27;88115;-58
2022/12/08 01:09:53;;;;;;;68.40;52.88;;;12.50;65.10;;;;;;4993266;27;88246;-59
2022/12/08 01:12:19;;;;;;;68.55;51.83;;;12.50;65.10;;;;;;4998653;27;87139;-59
2022/12/08 01:14:44;;;;;;;67.38;51.58;;;12.50;65.10;;;;;;5022383;27;87440;-59
2022/12/08 01:17:10;;;;;;;66.82;52.13;;;12.50;65.10;;;;;;5019831;27;87728;-57
2022/12/08 01:19:36;;;;;;;68.65;52.05;;;12.50;65.30;;;;;;5016578;27;88713;-58
2022/12/08 01:22:02;;;;;;;69.60;52.67;;;12.50;65.20;;;;;;4985829;27;87510;-59
2022/12/08 01:24:28;;;;;;;68.38;52.25;;;12.50;65.20;;;;;;4970766;27;87703;-56
2022/12/08 01:26:54;;;;;;;68.75;52.63;;;12.40;65.10;;;;;;5029660;27;87068;-58
2022/12/08 01:29:19;;;;;;;68.55;52.25;;;12.50;65.20;;;;;;5017315;27;89191;-57
2022/12/08 01:31:45;;;;;;;68.00;51.45;;;12.50;65.20;;;;;;5019976;27;86337;-58
2022/12/08 01:34:11;;;;;;;68.85;52.45;;;12.40;65.10;;;;;;5005498;27;86007;-58
2022/12/08 01:36:37;;;;;;;68.82;52.35;;;12.40;65.30;;;;;;5027991;27;85160;-59
2022/12/08 01:39:06;;;;;;;68.68;52.00;;;12.40;65.30;;;;;;5026307;27;88854;-59
2022/12/08 01:41:34;;;;;;;67.85;52.28;;;12.40;65.40;;;;;;5045016;27;85593;-59
2022/12/08 01:44:22;;;;;;;67.55;51.67;;;12.40;65.40;;;;;;5042017;27;88396;-59
2022/12/08 01:46:48;;;;;;;67.38;52.15;;;12.40;65.30;;;;;;5042709;27;87054;-59
2022/12/08 01:49:20;;;;;;;69.32;52.45;;;12.40;65.30;;;;;;5037626;27;86611;-59
2022/12/08 01:51:54;;;;;;;67.47;52.47;;;12.40;65.30;;;;;;5050475;27;85973;-58
2022/12/08 01:54:25;;;;;;;67.90;51.90;;;12.40;65.30;;;;;;5049494;27;87540;-57
2022/12/08 01:57:05;;;;;;;67.53;51.65;;;12.40;65.30;;;;;;5031619;27;85824;-59
2022/12/08 01:59:35;;;;;;;69.00;52.00;;;12.40;65.30;;;;;;5048253;27;87586;-59
2022/12/08 02:02:01;;;;;;;69.55;51.88;;;12.40;65.30;;;;;;5038440;27;90757;-59
2022/12/08 02:04:26;;;;;;;68.43;52.05;;;12.30;65.30;;;;;;5045172;27;86766;-59
2022/12/08 02:06:53;;;;;;;67.32;52.30;;;12.40;65.20;;;;;;5042078;27;85586;-59
2022/12/08 02:09:20;;;;;;;67.95;51.90;;;12.30;65.10;;;;;;5039141;27;94995;-59
2022/12/08 02:11:46;;;;;;;66.35;51.90;;;12.30;65.30;;;;;;5032068;27;88333;-59
2022/12/08 02:14:12;;;;;;;68.20;52.20;;;12.30;65.20;;;;;;5039638;27;88211;-58
2022/12/08 02:17:04;;;;;;;67.15;51.83;;;12.30;65.40;;;;;;5053908;27;91655;-59
2022/12/08 02:20:04;;;;;;;67.97;51.83;;;12.30;65.30;;;;;;5041485;27;88522;-58
2022/12/08 02:22:43;;;;;;;68.50;51.55;;;12.30;65.30;;;;;;5038034;27;88860;-59
2022/12/08 02:25:48;;;;;;;67.15;51.97;;;12.30;65.30;;;;;;5042831;27;87001;-56
2022/12/08 02:28:22;;;;;;;68.32;52.05;;;12.30;65.50;;;;;;5048271;27;85946;-58
2022/12/08 02:31:13;;;;;;;68.63;51.78;;;12.30;65.40;;;;;;5040686;27;91575;-59
2022/12/08 02:33:42;;;;;;;67.07;52.77;;;12.30;65.30;;;;;;5047655;27;87638;-58
2022/12/08 02:36:41;;;;;;;67.53;51.63;;;12.30;65.40;;;;;;5046648;27;90532;-58
2022/12/08 02:39:26;;;;;;;67.75;51.50;;;12.20;65.30;;;;;;5046057;27;85862;-59
2022/12/08 02:42:19;;;;;;;66.47;51.85;;;12.20;65.20;;;;;;5038188;27;88381;-60
2022/12/08 02:45:07;;;;;;;67.25;51.53;;;12.30;65.30;;;;;;4994464;27;88203;-59
2022/12/08 02:47:34;;;;;;;67.40;52.30;;;12.20;65.30;;;;;;5046201;27;88032;-57
2022/12/08 02:49:59;;;;;;;65.55;51.50;;;12.20;65.40;;;;;;5041161;27;85856;-59
2022/12/08 02:52:25;;;;;;;66.78;51.47;;;12.20;65.50;;;;;;5041266;27;86024;-60
2022/12/08 02:54:56;;;;;;;65.70;51.60;;;12.20;65.40;;;;;;5029746;27;89374;-58
2022/12/08 02:57:30;;;;;;;68.82;51.72;;;12.20;65.40;;;;;;5043189;27;88115;-61
2022/12/08 03:00:01;;;;;;;69.15;51.47;;;12.20;65.40;;;;;;5041512;27;85868;-58
2022/12/08 03:02:42;;;;;;;;;;;12.20;65.30;;;;;;5034491;27;92401;-58
2022/12/08 03:05:23;;;;;;;67.25;51.40;;;12.20;65.30;;;;;;5031583;27;86503;-59
2022/12/08 03:07:54;;;;;;;66.07;51.53;;;12.20;65.30;;;;;;5036445;27;89407;-58
2022/12/08 03:10:54;;;;;;;67.57;51.08;;;12.20;65.30;;;;;;5041987;27;86712;-59
2022/12/08 03:13:24;;;;;;;67.40;51.50;;;12.20;65.30;;;;;;5040451;27;86620;-59
2022/12/08 03:15:53;;;;;;;65.88;51.15;;;12.20;65.30;;;;;;5043821;27;85737;-60
2022/12/08 03:18:25;;;;;;;66.13;51.25;;;12.10;65.30;;;;;;5032531;27;89472;-59
2022/12/08 03:20:51;;;;;;;66.85;51.13;;;12.20;65.40;;;;;;5042876;27;85353;-59
2022/12/08 03:23:19;;;;;;;65.90;51.47;;;12.20;65.30;;;;;;5043558;27;87317;-59
2022/12/08 03:25:59;;;;;;;67.15;51.38;;;12.20;65.40;;;;;;5044764;27;86549;-59
2022/12/08 03:28:25;;;;;;;64.88;50.50;;;12.20;65.40;;;;;;5031690;27;89449;-56
2022/12/08 03:30:54;;;;;;;66.68;50.88;;;12.20;65.30;;;;;;5038277;27;88281;-58
2022/12/08 03:33:27;;;;;;;66.93;50.95;;;12.20;65.30;;;;;;5036942;27;87703;-57
2022/12/08 03:35:54;;;;;;;66.85;51.15;;;12.20;65.40;;;;;;5040219;27;87881;-58
2022/12/08 03:38:21;;;;;;;68.40;51.63;;;12.20;65.20;;;;;;5038141;27;88439;-59
2022/12/08 03:41:17;;;;;;;67.55;51.20;;;12.20;65.30;;;;;;5028816;27;89066;-59
2022/12/08 03:43:35;;;;;;;66.55;51.38;;;12.20;65.30;;;;;;5044044;27;86886;-59
2022/12/08 03:46:01;;;;;;;65.30;51.08;;;12.20;65.20;;;;;;5042664;27;87204;-57
2022/12/08 03:48:26;;;;;;;67.53;51.88;;;12.20;65.40;;;;;;5024141;27;86179;-57
2022/12/08 03:50:52;;;;;;;66.97;51.67;;;12.20;65.30;;;;;;5040290;27;89248;-57
2022/12/08 03:53:18;;;;;;;65.28;50.80;;;12.10;65.30;;;;;;5021066;27;91977;-58
2022/12/08 03:55:43;;;;;;;68.97;51.78;;;12.10;65.30;;;;;;5032227;27;88524;-58
2022/12/08 03:58:09;;;;;;;66.45;51.83;;;12.10;65.30;;;;;;5032293;27;85943;-56
2022/12/08 04:00:35;;;;;;;68.35;51.72;;;12.10;65.30;;;;;;5019597;27;88624;-60
2022/12/08 04:03:00;;;;;;;65.75;51.38;;;12.10;65.30;;;;;;5037805;27;85760;-59
2022/12/08 04:05:26;;;;;;;67.20;51.38;;;12.20;65.30;;;;;;5030314;27;85935;-59
2022/12/08 04:07:56;;;;;;;67.53;51.83;;;12.20;65.20;;;;;;5048939;27;87179;-58
2022/12/08 04:10:22;;;;;;;67.70;52.05;;;12.10;65.20;;;;;;5006417;27;87022;-59
2022/12/08 04:12:47;;;;;;;66.40;51.40;;;12.10;65.20;;;;;;5048060;27;90080;-59
2022/12/08 04:15:13;;;;;;;64.82;50.83;;;12.10;65.40;;;;;;5037840;27;88642;-55
2022/12/08 04:17:39;;;;;;;66.78;51.03;;;12.10;65.20;;;;;;5034609;27;85877;-59
2022/12/08 04:20:06;;;;;;;66.65;51.25;;;12.20;65.40;;;;;;5047403;27;85861;-58
2022/12/08 04:22:31;;;;;;;65.72;50.70;;;12.10;65.30;;;;;;5021827;27;86428;-59
2022/12/08 04:24:57;;;;;;;66.50;50.53;;;12.10;65.30;;;;;;5047655;27;87377;-58
2022/12/08 04:27:22;;;;;;;65.30;50.65;;;12.10;65.30;;;;;;5040170;27;86636;-59
2022/12/08 04:29:48;;;;;;;66.25;51.08;;;12.10;65.30;;;;;;5032318;27;85871;-59
2022/12/08 04:32:14;;;;;;;65.75;50.67;;;12.20;65.00;;;;;;5036817;27;88115;-57
2022/12/08 04:34:39;;;;;;;65.32;50.75;;;12.10;65.20;;;;;;5042502;27;86276;-59
2022/12/08 04:37:05;;;;;;;66.10;51.08;;;12.10;65.30;;;;;;5040226;27;88374;-58
2022/12/08 04:39:31;;;;;;;66.90;51.10;;;12.10;65.30;;;;;;5047981;27;85401;-58
2022/12/08 04:41:56;;;;;;;68.85;51.00;;;12.10;65.30;;;;;;5047238;27;86463;-59
2022/12/08 04:44:22;;;;;;;64.32;50.58;;;12.00;65.30;;;;;;5040222;27;88892;-59
2022/12/08 04:46:48;;;;;;;65.15;50.63;;;12.00;65.50;;;;;;5032937;27;87725;-59
2022/12/08 04:49:13;;;;;;;65.07;51.20;;;12.00;65.40;;;;;;5034696;27;86608;-56
2022/12/08 04:51:39;;;;;;;65.30;51.05;;;12.00;65.40;;;;;;5024930;27;85368;-57
2022/12/08 04:54:05;;;;;;;64.50;50.63;;;12.00;65.50;;;;;;5047675;27;89594;-60
2022/12/08 04:56:30;;;;;;;65.82;51.28;;;12.00;65.30;;;;;;5034682;27;87397;-57
2022/12/08 04:58:56;;;;;;;64.88;50.88;;;12.00;65.40;;;;;;5040872;27;87062;-58
2022/12/08 05:01:22;;;;;;;64.93;50.58;;;12.00;65.40;;;;;;5044565;27;85656;-58
2022/12/08 05:03:47;;;;;;;64.35;50.45;;;12.00;65.40;;;;;;5044561;27;85541;-57
2022/12/08 05:06:13;;;;;;;66.45;51.47;;;12.00;65.20;;;;;;5032485;27;89003;-58
2022/12/08 05:08:40;;;;;;;65.38;50.85;;;12.00;65.20;;;;;;5041573;27;85022;-57
2022/12/08 05:11:07;;;;;;;64.50;50.70;;;12.00;65.30;;;;;;5040835;27;90947;-57
2022/12/08 05:13:33;;;;;;;65.45;51.10;;;12.00;65.40;;;;;;5050953;27;87612;-58
2022/12/08 05:16:07;;;;;;;65.03;51.17;;;12.00;65.20;;;;;;5049783;27;85839;-57
2022/12/08 05:18:34;;;;;;;66.25;50.70;;;12.00;65.20;;;;;;5040498;27;90314;-59
2022/12/08 05:20:59;;;;;;;64.82;50.25;;;12.00;65.20;;;;;;5039414;27;88836;-58
2022/12/08 05:23:26;;;;;;;65.72;50.70;;;12.00;65.20;;;;;;5029613;27;86274;-58
2022/12/08 05:25:52;;;;;;;65.72;50.92;;;12.00;65.30;;;;;;5032042;27;85905;-59
2022/12/08 05:28:17;;;;;;;65.25;50.88;;;12.00;65.30;;;;;;5034057;27;87368;-59
2022/12/08 05:30:43;;;;;;;65.88;50.80;;;12.00;65.20;;;;;;5039274;27;85638;-58
2022/12/08 05:33:09;;;;;;;64.97;51.15;;;11.90;65.30;;;;;;5039176;27;86317;-59
2022/12/08 05:35:34;;;;;;;65.32;50.65;;;12.00;65.30;;;;;;5033300;27;87932;-58
2022/12/08 05:38:00;;;;;;;67.03;50.83;;;12.00;65.30;;;;;;5052427;27;85965;-56
2022/12/08 05:40:26;;;;;;;64.88;50.53;;;12.00;65.30;;;;;;5040315;27;89977;-59
2022/12/08 05:42:52;;;;;;;66.63;51.45;;;11.90;65.20;;;;;;5026899;27;86613;-56
2022/12/08 05:45:17;;;;;;;67.60;51.42;;;11.90;65.50;;;;;;5036865;27;85717;-58
2022/12/08 05:47:43;;;;;;;66.53;50.97;;;11.90;65.30;;;;;;5038938;27;85526;-57
2022/12/08 05:50:09;;;;;;;65.00;51.13;;;11.90;65.30;;;;;;5029180;27;88081;-56
2022/12/08 05:52:35;;;;;;;66.53;51.58;;;11.90;64.80;;;;;;5031983;27;87441;-58
2022/12/08 05:55:01;;;;;;;66.32;51.30;;;11.90;65.20;;;;;;5029920;27;85452;-57
2022/12/08 05:57:27;;;;;;;65.07;50.95;;;11.90;65.40;;;;;;5043561;27;85727;-58
2022/12/08 05:59:52;;;;;;;66.38;51.28;;;11.90;65.40;;;;;;5033492;27;87599;-58
2022/12/08 06:02:18;;;;;;;70.13;50.75;;;11.90;65.40;;;;;;5033160;27;89106;-56
2022/12/08 06:04:44;;;;;;;66.43;51.33;;;11.90;65.40;;;;;;5023027;27;88855;-58
2022/12/08 06:07:09;;;;;;;67.82;50.92;;;11.90;65.40;;;;;;5026577;27;86700;-58
2022/12/08 06:09:35;;;;;;;65.88;50.95;;;11.90;66.30;;;;;;5042393;27;86430;-58
2022/12/08 06:12:01;;;;;;;65.18;51.40;;;11.90;65.80;;;;;;5052397;27;85893;-58
2022/12/08 06:14:27;;;;;;;71.50;51.20;;;11.90;65.60;;;;;;5051118;27;87692;-58
2022/12/08 06:16:52;;;;;;;67.50;51.38;;;11.90;65.70;;;;;;5021086;27;87449;-58
2022/12/08 06:19:18;;;;;;;65.63;51.08;;;11.90;65.80;;;;;;5039370;27;86068;-58
2022/12/08 06:21:44;;;;;;;70.68;51.90;;;11.90;65.40;;;;;;5036712;27;86101;-58
2022/12/08 06:24:11;;;;;;;68.00;51.90;;;11.90;65.80;;;;;;5030612;27;86233;-57
2022/12/08 06:26:39;;;;;;;71.43;52.17;;;11.90;65.60;;;;;;5037337;27;86261;-58
2022/12/08 06:29:04;;;;;;;70.18;52.42;;;11.90;66.00;;;;;;5043549;27;85912;-56
2022/12/08 06:31:30;;;;;;;67.28;51.85;;;11.90;66.70;;;;;;5042396;27;89263;-58
2022/12/08 06:33:56;;;;;;;71.18;52.58;;;11.90;67.10;;;;;;5024819;27;86697;-56
2022/12/08 06:36:25;;;;;;;71.32;53.22;;;11.90;66.80;;;;;;5044409;27;85122;-57
2022/12/08 06:38:51;;;;;;;77.63;53.53;;;12.10;66.90;;;;;;5010500;27;85450;-58
2022/12/08 06:41:16;;;;;;;73.60;52.95;;;12.20;66.20;;;;;;5021299;27;87409;-57
2022/12/08 06:43:43;;;;;;;71.90;53.88;;;12.30;65.80;;;;;;5043925;27;90322;-56
2022/12/08 06:46:14;;;;;;;76.40;53.47;;;12.40;65.80;;;;;;5038318;27;90494;-57
2022/12/08 06:48:40;;;;;;;77.20;53.75;;;12.40;65.50;;;;;;5041596;27;85736;-56
2022/12/08 06:51:15;;;;;;;74.43;53.22;;;12.40;65.40;;;;;;5044567;27;85800;-58
2022/12/08 06:53:42;;;;;;;77.15;53.28;;;12.40;65.50;;;;;;5053106;27;85727;-57
2022/12/08 06:56:08;;;;;;;71.50;52.38;;;12.40;65.50;;;;;;5034264;27;87422;-57
2022/12/08 06:58:34;;;;;;;72.88;53.95;;;12.50;65.60;;;;;;5030541;27;92209;-57
2022/12/08 07:01:08;;;;;;;74.45;53.50;;;12.50;65.50;;;;;;5035554;27;90007;-57
2022/12/08 07:03:35;;;;;;;75.07;53.72;;;12.50;65.30;;;;;;5040553;27;85157;-57
2022/12/08 07:06:01;;;;;;;74.78;54.10;;;12.50;65.60;;;;;;5038979;27;85642;-57
2022/12/08 07:08:27;;;;;;;77.85;53.63;;;12.60;65.50;;;;;;5044088;27;91882;-57
2022/12/08 07:10:52;;;;;;;73.45;54.00;;;12.60;65.40;;;;;;5035486;27;90087;-58
2022/12/08 07:13:18;;;;;;;74.15;53.42;;;12.70;65.30;;;;;;5045710;27;91363;-56
2022/12/08 07:15:43;;;;;;;78.00;53.25;;;12.70;65.40;;;;;;5026698;27;86342;-49
2022/12/08 07:18:09;;;;;;;80.47;53.58;;;13.00;65.10;;;;;;5043116;27;86134;-57
2022/12/08 07:20:35;;;;;;;79.82;52.95;;;13.20;64.60;;;;;;5037672;27;86787;-58
2022/12/08 07:23:00;;;;;;;72.85;53.03;;;13.20;64.10;;;;;;5034473;27;86559;-51
2022/12/08 07:25:26;;;;;;;74.47;53.00;;;13.30;63.80;;;;;;5032762;27;85409;-58
2022/12/08 07:27:52;;;;;;;73.88;53.25;;;13.30;63.80;;;;;;5036580;27;86387;-53
2022/12/08 07:30:18;;;;;;;71.90;53.03;;;13.40;63.80;;;;;;5028989;27;86793;-56
2022/12/08 07:32:44;;;;;;;75.25;52.25;;;13.40;63.90;;;;;;5033860;27;90943;-57
2022/12/08 07:35:09;;;;;;;77.70;53.33;;;13.40;63.70;;;;;;5031652;27;88034;-56
2022/12/08 07:37:36;;;;;;;72.22;52.97;;;13.40;64.30;;;;;;5031299;27;88799;-59
2022/12/08 07:40:04;;;;;;;75.18;52.88;;;13.60;63.10;;;;;;5044474;27;89526;-53
2022/12/08 07:42:30;;;;;;;72.63;52.95;;;13.70;62.40;;;;;;5030690;27;88239;-58
2022/12/08 07:44:55;;;;;;;73.68;53.38;;;13.80;61.80;;;;;;5033142;27;86219;-56
2022/12/08 07:47:21;;;;;;;73.70;52.72;;;13.90;61.40;;;;;;5048783;27;87176;-56
2022/12/08 07:49:47;;;;;;;77.82;53.72;;;14.00;61.00;;;;;;5043831;27;87833;-57
2022/12/08 07:52:13;;;;;;;75.57;53.28;;;13.90;61.10;;;;;;5026278;27;87948;-56
2022/12/08 07:54:38;;;;;;;70.50;53.00;;;14.00;61.00;;;;;;5048720;27;86757;-55
2022/12/08 07:57:04;;;;;;;73.43;52.85;;;14.00;60.90;;;;;;5041752;27;85540;-57
2022/12/08 07:59:31;;;;;;;71.85;52.83;;;14.00;60.90;;;;;;5043583;27;86342;-56
2022/12/08 08:01:56;;;;;;;75.20;53.13;;;14.00;60.60;;;;;;5047090;27;86645;-58
2022/12/08 08:04:22;;;;;;;73.68;52.83;;;14.00;60.40;;;;;;5045629;27;85439;-54
2022/12/08 08:06:48;;;;;;;72.53;52.67;;;14.10;60.50;;;;;;5025983;27;90540;-58
2022/12/08 08:09:13;;;;;;;70.95;52.17;;;14.10;60.10;;;;;;5029875;27;86884;-56
2022/12/08 08:11:39;;;;;;;80.80;52.75;;;14.10;60.10;;;;;;5027174;27;91652;-54
2022/12/08 08:14:05;;;;;;;74.47;52.60;;;14.20;60.00;;;;;;5034463;27;88960;-54
2022/12/08 08:16:31;;;;;;;75.80;52.83;;;14.20;60.00;;;;;;5045333;27;85381;-54
2022/12/08 08:18:56;;;;;;;73.65;52.33;;;14.30;59.90;;;;;;5033460;27;85234;-51
2022/12/08 08:21:22;;;;;;;74.75;52.83;;;14.30;59.70;;;;;;5038537;27;92528;-51
2022/12/08 08:23:48;;;;;;;72.38;52.70;;;14.30;59.60;;;;;;5035950;27;85801;-58
2022/12/08 08:26:14;;;;;;;74.20;52.15;;;14.40;59.70;;;;;;5039414;27;87000;-56
2022/12/08 08:28:40;;;;;;;72.32;52.75;;;14.30;59.70;;;;;;5017796;27;88984;-57
2022/12/08 08:31:06;;;;;;;72.13;51.80;;;14.20;59.60;;;;;;5017160;27;89967;-58
2022/12/08 08:33:31;;;;;;;77.72;52.53;;;14.10;59.80;;;;;;5034301;27;85615;-57
2022/12/08 08:35:57;;;;;;;73.47;52.45;;;14.10;59.90;;;;;;5041717;27;90445;-59
2022/12/08 08:38:23;;;;;;;73.38;52.97;;;14.10;59.90;;;;;;5037259;27;86379;-59
2022/12/08 08:40:49;;;;;;;73.20;52.85;;;14.20;59.80;;;;;;5022279;27;88077;-58
2022/12/08 08:43:30;;;;;;;76.40;52.78;;;14.20;59.80;;;;;;5033151;27;86090;-55
2022/12/08 08:45:57;;;;;;;;;;;14.40;59.60;;;;;;5031073;27;87321;-54
2022/12/08 08:48:22;;;;;;;73.95;52.47;;;14.50;59.50;;;;;;5037355;27;85353;-52
2022/12/08 08:50:48;;;;;;;71.45;52.53;;;14.50;59.00;;;;;;5040220;27;87720;-55
2022/12/08 08:53:14;;;;;;;76.28;52.78;;;14.50;59.00;;;;;;5047742;27;86040;-51
2022/12/08 08:55:39;;;;;;;76.75;52.10;;;14.60;58.80;;;;;;5038304;27;87233;-59
2022/12/08 08:58:05;;;;;;;73.32;52.35;;;14.60;58.70;;;;;;5029179;27;85895;-58
2022/12/08 09:00:31;;;;;;;72.25;51.83;;;14.70;59.00;;;;;;5041854;27;88538;-55
2022/12/08 09:02:56;;;;;;;71.53;52.17;;;14.80;59.00;;;;;;5024369;27;86244;-57
2022/12/08 09:05:23;;;;;;;72.20;52.05;;;14.70;58.60;;;;;;5030952;27;91843;-53
2022/12/08 09:07:49;;;;;;;77.60;52.40;;;14.80;58.70;;;;;;5021251;27;93029;-55
2022/12/08 09:10:14;;;;;;;71.63;51.95;;;14.80;58.50;;;;;;5036025;27;87184;-55
2022/12/08 09:12:40;;;;;;;70.90;51.70;;;14.70;58.50;;;;;;5042667;27;85809;-55
2022/12/08 09:15:06;;;;;;;76.28;52.85;;;14.70;58.40;;;;;;5028047;27;88727;-56
2022/12/08 09:17:32;;;;;;;72.68;52.25;;;14.80;58.40;;;;;;5037823;27;85608;-56
2022/12/08 09:19:58;;;;;;;71.80;52.53;;;14.80;58.30;;;;;;5034672;27;86841;-54
2022/12/08 09:22:23;;;;;;;71.65;52.03;;;14.80;58.10;;;;;;5030074;27;86101;-57
2022/12/08 09:24:49;;;;;;;71.45;52.53;;;14.80;58.40;;;;;;5026472;27;90510;-53
2022/12/08 09:27:15;;;;;;;74.40;52.28;;;14.80;58.40;;;;;;5034163;27;92078;-57
2022/12/08 09:29:40;;;;;;;72.97;52.03;;;14.80;58.50;;;;;;5048207;27;85883;-52
2022/12/08 09:32:06;;;;;;;70.20;51.85;;;14.90;58.30;;;;;;5040974;27;89987;-48
2022/12/08 09:34:32;;;;;;;70.72;51.60;;;15.00;58.40;;;;;;5035602;27;85276;-56
2022/12/08 09:36:57;;;;;;;73.75;53.33;;;15.00;58.40;;;;;;5029990;27;93183;-58
2022/12/08 09:39:23;;;;;;;93.47;63.97;;;14.90;58.40;;;;;;5052791;27;86156;-58
2022/12/08 09:41:56;;;;;;;89.43;61.05;;;14.90;58.30;;;;;;5042128;27;86498;-56
2022/12/08 09:44:28;;;;;;;87.55;59.55;;;14.90;58.30;;;;;;5032116;27;88565;-53
2022/12/08 09:46:54;;;;;;;90.10;58.63;;;15.00;58.20;;;;;;5042538;27;86117;-51
2022/12/08 09:49:26;;;;;;;84.95;58.33;;;15.10;58.30;;;;;;5054957;27;86144;-51
2022/12/08 09:51:53;;;;;;;86.88;58.40;;;15.20;57.90;;;;;;5040830;27;85317;-50
2022/12/08 09:54:26;;;;;;;83.32;57.55;;;15.20;57.80;;;;;;5032577;27;87048;-57
2022/12/08 09:56:55;;;;;;;81.57;57.38;;;15.30;57.80;;;;;;5046220;27;86520;-56
2022/12/08 09:59:25;;;;;;;84.88;57.70;;;15.30;57.50;;;;;;5033334;27;87986;-49
2022/12/08 10:01:51;;;;;;;81.65;56.78;;;15.20;57.80;;;;;;5048437;27;88510;-59
2022/12/08 10:04:31;;;;;;;84.53;56.90;;;15.30;57.70;;;;;;5020692;27;85799;-55
2022/12/08 10:07:06;;;;;;;83.03;57.00;;;15.40;57.70;;;;;;5044895;27;85875;-55
2022/12/08 10:10:01;;;;;;;81.95;56.33;;;15.50;57.40;;;;;;5028507;27;85895;-54
2022/12/08 10:12:34;;;;;;;84.10;55.80;;;15.50;57.20;;;;;;5044273;27;86137;-59
2022/12/08 10:15:22;;;;;;;83.57;56.47;;;15.50;57.30;;;;;;5038488;27;87784;-58
2022/12/08 10:17:50;;;;;;;80.85;55.78;;;15.50;57.60;;;;;;5037147;27;86804;-50
2022/12/08 10:20:19;;;;;;;80.80;55.65;;;15.50;57.80;;;;;;5028703;27;86370;-57
2022/12/08 10:23:10;;;;;;;80.57;55.42;;;15.40;57.70;;;;;;5034790;27;89836;-58
2022/12/08 10:25:43;;;;;;;78.63;55.33;;;15.50;57.70;;;;;;5027458;27;88141;-57
2022/12/08 10:28:09;;;;;;;75.63;54.47;;;15.50;57.40;;;;;;5037786;27;87951;-57
2022/12/08 10:30:35;;;;;;;77.90;54.92;;;15.70;57.20;;;;;;5039333;27;88299;-53
2022/12/08 10:33:00;;;;;;;80.43;55.03;;;15.60;57.10;;;;;;5029916;27;86168;-57
2022/12/08 10:35:42;;;;;;;76.60;54.40;;;15.70;57.30;;;;;;5034928;27;87059;-58
2022/12/08 10:38:35;;;;;;;86.30;57.90;;;15.70;57.10;;;;;;5029865;27;85523;-58
2022/12/08 10:41:12;;;;;;;85.47;56.95;;;15.70;57.00;;;;;;5013181;27;85960;-58
2022/12/08 10:43:48;;;;;;;84.45;55.75;;;15.80;57.00;;;;;;5016879;27;86899;-58
2022/12/08 10:46:25;;;;;;;78.30;55.13;;;15.80;57.00;;;;;;5022698;27;85575;-54
2022/12/08 10:48:53;;;;;;;80.03;55.50;;;15.90;57.00;;;;;;5015295;27;85452;-54
2022/12/08 10:51:33;;;;;;;77.07;55.45;;;15.90;56.60;;;;;;5021795;27;88945;-54
2022/12/08 10:53:59;;;;;;;79.13;55.25;;;16.00;56.70;;;;;;5017332;27;89715;-53
2022/12/08 10:56:27;;;;;;;77.03;54.45;;;16.10;56.30;;;;;;5003885;27;87863;-56
2022/12/08 10:59:13;;;;;;;79.80;55.00;;;16.20;56.30;;;;;;5016138;27;88386;-56
2022/12/08 11:01:40;;;;;;;75.90;54.17;;;16.30;56.50;;;;;;5018327;27;86293;-56
2022/12/08 11:04:14;;;;;;;79.50;55.55;;;16.40;56.50;;;;;;5021028;27;85183;-56
2022/12/08 11:06:41;;;;;;;79.15;54.85;;;16.40;58.60;;;;;;5026662;27;88028;-56
2022/12/08 11:09:19;;;;;;;81.07;55.03;;;16.30;57.90;;;;;;5008927;27;91045;-61
2022/12/08 11:11:54;;;;;;;78.25;54.38;;;16.30;57.50;;;;;;5014689;27;86067;-56
2022/12/08 11:14:26;;;;;;;80.03;54.50;;;16.40;57.00;;;;;;5021015;27;88390;-55
2022/12/08 11:17:12;;;;;;;78.53;54.50;;;16.50;56.70;;;;;;5016788;27;87842;-55
2022/12/08 11:19:53;;;;;;;77.13;54.25;;;16.50;56.50;;;;;;5015477;27;86663;-56
2022/12/08 11:22:24;;;;;;;77.28;53.92;;;16.50;56.40;;;;;;5022900;27;88744;-55
2022/12/08 11:25:01;;;;;;;79.43;54.55;;;16.50;56.50;;;;;;5017453;27;90989;-54
2022/12/08 11:27:27;;;;;;;77.55;54.08;;;16.50;56.60;;;;;;5020332;27;86924;-54
2022/12/08 11:29:53;;;;;;;76.35;54.22;;;16.40;57.10;;;;;;5021312;27;88480;-57
2022/12/08 11:32:19;;;;;;;77.47;53.90;;;16.50;57.10;;;;;;5024066;27;87708;-54
2022/12/08 11:34:57;;;;;;;78.93;53.58;;;16.40;57.10;;;;;;5021150;27;88916;-56
2022/12/08 11:37:25;;;;;;;75.18;53.30;;;16.40;57.00;;;;;;5017020;27;87707;-56
2022/12/08 11:39:55;;;;;;;81.47;53.60;;;16.40;57.00;;;;;;5023330;27;87056;-56
2022/12/08 11:42:27;;;;;;;75.63;53.33;;;16.40;57.10;;;;;;5018343;27;86921;-55
2022/12/08 11:45:06;;;;;;;75.15;53.13;;;16.40;57.10;;;;;;5039716;27;85517;-53
2022/12/08 11:47:43;;;;;;;75.50;53.35;;;16.40;57.10;;;;;;5037918;27;86922;-55
2022/12/08 11:50:30;;;;;;;74.25;53.03;;;16.30;57.10;;;;;;5041662;27;87314;-56
2022/12/08 11:52:57;;;;;;;76.30;52.65;;;16.40;57.10;;;;;;5031542;27;89084;-54
2022/12/08 11:55:40;;;;;;;76.22;53.00;;;16.40;57.00;;;;;;5037955;27;87996;-54
2022/12/08 11:58:38;;;;;;;74.32;53.30;;;16.30;56.80;;;;;;5040883;27;88144;-55
2022/12/08 12:01:04;;;;;;;75.63;53.20;;;16.30;57.10;;;;;;5031237;27;85500;-54
2022/12/08 12:03:40;;;;;;;77.95;53.42;;;16.20;57.10;;;;;;5035379;27;87359;-56
2022/12/08 12:06:35;;;;;;;78.07;53.30;;;16.30;57.10;;;;;;5047770;27;87693;-55
2022/12/08 12:09:44;;;;;;;75.07;53.03;;;16.20;57.40;;;;;;5039080;27;88393;-54
2022/12/08 12:12:43;;;;;;;78.10;53.72;;;16.00;57.70;;;;;;5031338;27;87525;-56
2022/12/08 12:15:28;;;;;;;77.07;52.63;;;15.90;57.60;;;;;;5034156;27;85681;-56
2022/12/08 12:18:24;;;;;;;77.60;53.33;;;16.00;57.50;;;;;;5040762;27;85553;-53
2022/12/08 12:20:50;;;;;;;74.43;52.67;;;16.10;57.30;;;;;;5039952;27;90442;-51
2022/12/08 12:23:27;;;;;;;79.45;53.20;;;16.20;57.20;;;;;;5041468;27;92003;-55
2022/12/08 12:25:59;;;;;;;76.32;53.08;;;16.30;57.00;;;;;;5043744;27;86465;-51
2022/12/08 12:28:33;;;;;;;79.30;53.25;;;16.40;57.00;;;;;;5050458;27;88115;-52
2022/12/08 12:31:07;;;;;;;76.90;52.67;;;16.50;57.00;;;;;;5046863;27;86397;-50
2022/12/08 12:33:34;;;;;;;77.35;52.97;;;16.40;57.40;;;;;;5033214;27;86662;-57
2022/12/08 12:36:05;;;;;;;76.65;53.10;;;16.30;57.80;;;;;;5048988;27;85439;-58
2022/12/08 12:41:23;;;;;;;75.78;52.35;;;16.50;57.30;;;;;;5024543;27;86081;-58
2022/12/08 12:44:27;;;;;;;75.78;52.55;;;16.50;57.20;;;;;;5011356;27;85934;-59
2022/12/08 12:46:59;;;;;;;78.47;52.80;;;16.50;57.10;;;;;;4951835;28;85296;-58
2022/12/08 12:49:39;;;;;;;74.80;52.70;;;16.50;57.20;;;;;;4938349;28;86184;-61